Time;durP1;ratioP1;P1;durP2;ratioP2;P2;SDS_P1;SDS_P2;PMS_P1;PMS_P2;Temp;Humidity;BMP_temperature;BMP_pressure;BME280_temperature;BME280_humidity;BME280_pressure;Samples;Min_cycle;Max_cycle;Signal;HPM_P1;HPM_P2
2022/08/02 00:01:25;;;;;;;3.20;1.98;;;19.70;1.00;;;;;;10498410;28;20206;-78
2022/08/02 00:06:46;;;;;;;2.42;1.70;;;19.70;1.00;;;;;;10467766;28;20237;-79
2022/08/02 00:12:08;;;;;;;4.10;1.85;;;19.70;1.00;;;;;;10448289;28;20240;-78
2022/08/02 00:17:30;;;;;;;2.75;1.48;;;19.60;1.00;;;;;;10438327;28;20300;-78
2022/08/02 00:22:51;;;;;;;2.80;1.92;;;19.60;1.00;;;;;;10441030;28;20197;-78
2022/08/02 00:28:12;;;;;;;2.03;1.83;;;19.50;1.00;;;;;;10440370;28;20223;-78
2022/08/02 00:33:34;;;;;;;3.20;2.10;;;19.40;1.00;;;;;;10425709;28;20354;-78
2022/08/02 00:38:56;;;;;;;3.65;2.10;;;19.50;1.00;;;;;;10410688;28;20228;-79
2022/08/02 00:44:19;;;;;;;1.95;1.80;;;19.40;1.00;;;;;;10397992;28;20204;-78
2022/08/02 00:49:40;;;;;;;4.05;2.15;;;19.30;1.00;;;;;;10398860;28;20197;-78
2022/08/02 00:55:02;;;;;;;2.40;1.85;;;19.40;1.00;;;;;;10467071;28;20245;-78
2022/08/02 01:00:24;;;;;;;3.20;2.35;;;19.30;1.00;;;;;;10480474;28;20219;-78
2022/08/02 01:05:45;;;;;;;4.40;2.30;;;19.40;1.00;;;;;;10491919;28;20189;-78
2022/08/02 01:11:12;;;;;;;3.00;2.40;;;19.40;1.00;;;;;;10437740;28;20250;-79
2022/08/02 01:16:45;;;;;;;5.00;2.40;;;19.40;1.00;;;;;;10419335;28;20490;-78
2022/08/02 01:22:33;;;;;;;5.70;2.45;;;19.30;1.00;;;;;;10397699;28;20221;-78
2022/08/02 01:28:40;;;;;;;2.83;1.98;;;19.20;1.00;;;;;;10412287;28;20197;-78
2022/08/02 01:34:23;;;;;;;3.97;2.20;;;19.10;1.00;;;;;;10422994;28;20237;-78
2022/08/02 01:39:49;;;;;;;5.03;2.40;;;19.10;1.00;;;;;;10399157;28;20291;-79
2022/08/02 01:45:12;;;;;;;6.22;2.95;;;19.00;1.00;;;;;;10396904;28;20185;-78
2022/08/02 01:50:36;;;;;;;4.68;2.60;;;19.00;1.00;;;;;;10396699;28;20194;-78
2022/08/02 01:55:59;;;;;;;4.40;2.03;;;18.80;1.00;;;;;;10420846;28;20188;-78
2022/08/02 02:01:22;;;;;;;3.90;2.05;;;18.70;1.00;;;;;;10478467;28;20242;-78
2022/08/02 02:06:45;;;;;;;5.93;2.22;;;18.60;1.00;;;;;;10401754;28;20204;-78
2022/08/02 02:12:08;;;;;;;6.82;2.58;;;18.60;1.00;;;;;;10394440;28;20235;-78
2022/08/02 02:17:31;;;;;;;3.13;1.95;;;18.50;1.00;;;;;;10406929;28;20217;-78
2022/08/02 02:22:53;;;;;;;2.15;1.52;;;18.40;1.00;;;;;;10408590;28;20488;-78
2022/08/02 02:28:29;;;;;;;6.05;1.98;;;18.30;1.00;;;;;;10423419;28;20390;-78
2022/08/02 02:33:57;;;;;;;4.20;1.85;;;18.20;1.00;;;;;;10427624;28;20231;-78
2022/08/02 02:39:21;;;;;;;5.32;1.98;;;18.20;1.00;;;;;;10394021;28;20233;-78
2022/08/02 02:44:46;;;;;;;4.40;1.95;;;18.10;1.00;;;;;;10395294;28;20457;-78
2022/08/02 02:50:09;;;;;;;3.67;1.70;;;18.00;1.00;;;;;;10379959;28;20219;-79
2022/08/02 02:55:31;;;;;;;2.58;1.83;;;;;;;;;;10470148;28;20362;-78
2022/08/02 03:06:36;;;;;;;7.93;2.40;;;17.80;7.30;;;;;;10455386;28;20193;-78
2022/08/02 03:11:58;;;;;;;5.85;2.15;;;17.80;9.50;;;;;;10414804;28;20250;-79
2022/08/02 03:17:20;;;;;;;5.93;2.03;;;17.70;11.00;;;;;;10417863;28;20229;-78
2022/08/02 03:22:43;;;;;;;3.70;1.77;;;17.70;18.00;;;;;;10387062;28;20227;-78
2022/08/02 03:28:04;;;;;;;5.57;1.95;;;17.60;13.40;;;;;;10431148;28;20397;-78
2022/08/02 03:33:27;;;;;;;8.75;2.08;;;17.50;15.10;;;;;;10424010;28;20272;-78
2022/08/02 03:38:51;;;;;;;4.40;1.45;;;17.50;19.80;;;;;;10401758;28;20230;-78
2022/08/02 03:44:14;;;;;;;7.68;2.63;;;17.50;18.30;;;;;;10409365;28;20205;-77
2022/08/02 03:49:36;;;;;;;6.57;2.47;;;17.50;16.60;;;;;;10442319;28;20206;-77
2022/08/02 03:54:57;;;;;;;7.22;1.98;;;17.50;14.80;;;;;;10460195;28;20510;-78
2022/08/02 04:00:20;;;;;;;8.77;2.35;;;17.40;18.30;;;;;;10482087;28;20298;-77
2022/08/02 04:05:42;;;;;;;3.95;1.90;;;17.40;14.10;;;;;;10469421;28;20199;-78
2022/08/02 04:17:11;;;;;;;5.80;1.95;;;17.40;8.80;;;;;;10396318;28;20467;-77
2022/08/02 04:22:49;;;;;;;3.70;1.90;;;17.40;1.00;;;;;;10399748;28;20361;-78
2022/08/02 04:28:11;;;;;;;4.80;2.00;;;17.40;4.20;;;;;;10413201;28;20199;-77
2022/08/02 04:33:34;;;;;;;6.68;2.20;;;17.50;1.00;;;;;;10433884;28;20216;-78
2022/08/02 04:38:55;;;;;;;6.43;2.17;;;17.50;1.00;;;;;;10398440;28;20259;-77
2022/08/02 04:44:17;;;;;;;7.93;2.03;;;17.50;1.00;;;;;;10398354;28;20483;-78
2022/08/02 04:49:38;;;;;;;5.35;2.28;;;17.60;1.00;;;;;;10398809;28;20193;-78
2022/08/02 04:54:59;;;;;;;6.93;2.17;;;17.60;1.00;;;;;;10465371;28;20192;-77
2022/08/02 05:00:21;;;;;;;6.15;1.90;;;17.60;1.00;;;;;;10465311;28;20239;-78
2022/08/02 05:05:43;;;;;;;5.82;2.13;;;17.70;1.00;;;;;;10439261;28;20216;-77
2022/08/02 05:11:04;;;;;;;5.60;1.88;;;17.80;1.00;;;;;;10438060;28;20238;-77
2022/08/02 05:16:26;;;;;;;11.65;2.63;;;17.80;1.00;;;;;;10421663;28;20279;-77
2022/08/02 05:21:48;;;;;;;4.72;2.17;;;17.80;1.00;;;;;;10410385;28;20555;-78
2022/08/02 05:27:09;;;;;;;6.13;1.92;;;17.90;1.00;;;;;;10416526;28;20242;-77
2022/08/02 05:32:31;;;;;;;9.13;2.45;;;18.00;1.00;;;;;;10438023;28;20199;-77
2022/08/02 05:37:52;;;;;;;9.75;1.80;;;18.00;1.00;;;;;;10396341;28;20216;-80
2022/08/02 05:43:14;;;;;;;7.63;1.92;;;18.10;1.00;;;;;;10381983;28;20248;-78
2022/08/02 05:48:36;;;;;;;7.97;1.50;;;18.20;1.00;;;;;;10381444;28;20207;-78
2022/08/02 05:54:21;;;;;;;8.55;1.98;;;18.20;99.90;;;;;;10411500;28;20227;-78
2022/08/02 06:00:08;;;;;;;6.13;1.55;;;18.40;99.90;;;;;;10411550;28;20232;-78
2022/08/02 06:05:37;;;;;;;8.68;2.17;;;18.50;66.80;;;;;;10395273;28;20190;-78
2022/08/02 06:11:02;;;;;;;5.13;1.70;;;18.70;9.50;;;;;;10395380;28;20423;-77
2022/08/02 06:16:26;;;;;;;6.00;1.48;;;18.70;1.00;;;;;;10396734;28;20275;-79
2022/08/02 06:21:48;;;;;;;8.15;2.38;;;18.80;1.00;;;;;;10395906;28;20372;-77
2022/08/02 06:27:15;;;;;;;8.52;1.63;;;19.10;1.00;;;;;;10401770;28;20196;-78
2022/08/02 06:32:36;;;;;;;4.00;1.40;;;19.40;1.00;;;;;;10395083;28;20189;-78
2022/08/02 06:38:02;;;;;;;7.65;1.83;;;19.90;99.90;;;;;;10395433;28;20331;-78
2022/08/02 06:43:43;;;;;;;11.82;2.67;;;20.50;1.00;;;;;;10395244;28;20205;-79
2022/08/02 06:49:04;;;;;;;4.43;1.27;;;21.40;1.00;;;;;;10394239;28;20212;-79
2022/08/02 06:54:26;;;;;;;6.22;1.50;;;22.00;2.00;;;;;;10452028;28;20254;-78
2022/08/02 06:59:47;;;;;;;6.85;1.27;;;22.60;99.90;;;;;;10393706;28;20247;-78
2022/08/02 07:05:09;;;;;;;9.50;1.50;;;23.10;1.00;;;;;;10412371;28;20541;-80
2022/08/02 07:10:31;;;;;;;8.10;1.40;;;23.70;99.90;;;;;;10404138;28;20296;-81
2022/08/02 07:15:52;;;;;;;5.80;1.73;;;24.00;1.00;;;;;;10473224;28;20326;-78
2022/08/02 07:21:16;;;;;;;3.75;1.65;;;24.30;1.00;;;;;;10459500;28;20249;-78
2022/08/02 07:26:37;;;;;;;3.78;1.40;;;24.80;1.00;;;;;;10471881;28;20203;-78
2022/08/02 07:32:10;;;;;;;5.57;1.90;;;25.10;99.90;;;;;;10462027;28;20200;-78
2022/08/02 07:37:33;;;;;;;10.40;1.75;;;25.40;99.90;;;;;;10467121;28;20204;-80
2022/08/02 07:42:56;;;;;;;5.47;1.80;;;25.90;99.90;;;;;;10486273;28;20207;-79
2022/08/02 07:48:19;;;;;;;6.38;1.50;;;26.10;99.90;;;;;;10449637;28;20204;-82
2022/08/02 07:53:40;;;;;;;4.72;1.23;;;26.10;22.00;;;;;;10477412;28;20208;-81
2022/08/02 07:59:03;;;;;;;10.52;1.67;;;25.80;1.00;;;;;;10514572;28;20250;-78
2022/08/02 08:04:24;;;;;;;5.22;1.10;;;26.20;1.00;;;;;;10517620;28;20541;-80
2022/08/02 08:09:46;;;;;;;5.18;1.77;;;26.90;1.00;;;;;;10478291;28;20218;-81
2022/08/02 08:15:09;;;;;;;5.20;1.35;;;27.20;1.00;;;;;;10446081;28;20470;-83
2022/08/02 08:20:30;;;;;;;7.57;1.58;;;27.50;1.00;;;;;;10476155;28;20231;-85
2022/08/02 08:25:51;;;;;;;18.13;1.70;;;27.80;1.00;;;;;;10504990;28;20230;-85
2022/08/02 08:31:12;;;;;;;6.40;1.48;;;27.90;1.00;;;;;;10462613;28;20226;-84
2022/08/02 08:36:34;;;;;;;4.03;1.27;;;27.90;1.00;;;;;;10464639;28;20210;-81
2022/08/02 08:41:55;;;;;;;11.38;1.17;;;28.20;1.00;;;;;;10460805;28;20698;-79
2022/08/02 08:47:18;;;;;;;2.63;1.10;;;28.50;1.00;;;;;;10492020;28;20256;-80
2022/08/02 08:52:46;;;;;;;3.05;1.20;;;28.50;1.00;;;;;;10475192;28;20204;-78
2022/08/02 08:58:08;;;;;;;4.00;1.45;;;28.80;1.00;;;;;;10503766;28;20560;-81
2022/08/02 09:03:29;;;;;;;5.00;1.27;;;29.30;1.00;;;;;;10490914;28;20411;-83
2022/08/02 09:08:51;;;;;;;4.68;1.75;;;29.30;1.00;;;;;;10460860;28;20542;-80
2022/08/02 09:14:28;;;;;;;10.63;1.73;;;29.70;1.00;;;;;;10462130;28;20235;-83
2022/08/02 09:20:06;;;;;;;29.98;3.50;;;30.20;99.90;;;;;;10475273;28;20224;-78
2022/08/02 09:25:28;;;;;;;13.57;1.50;;;30.10;99.90;;;;;;10470221;28;20191;-79
2022/08/02 09:30:49;;;;;;;27.67;3.90;;;30.30;99.90;;;;;;10458433;28;20265;-83
2022/08/02 09:36:12;;;;;;;3.03;1.10;;;30.70;99.90;;;;;;10417501;28;20429;-79
2022/08/02 09:41:37;;;;;;;6.55;1.55;;;31.00;99.90;;;;;;10449805;28;20227;-82
2022/08/02 09:46:59;;;;;;;2.67;1.10;;;31.20;99.90;;;;;;10444857;28;20278;-81
2022/08/02 09:52:28;;;;;;;5.35;1.20;;;31.10;99.90;;;;;;10446515;28;20266;-80
2022/08/02 09:57:49;;;;;;;5.32;1.25;;;31.40;99.90;;;;;;10458620;28;20216;-79
2022/08/02 10:03:11;;;;;;;3.65;0.90;;;31.50;99.90;;;;;;10488532;28;20192;-81
2022/08/02 10:08:33;;;;;;;8.75;1.27;;;31.70;99.90;;;;;;10458137;28;20234;-82
2022/08/02 10:13:55;;;;;;;5.00;2.13;;;31.90;99.90;;;;;;10470188;28;20232;-78
2022/08/02 10:19:17;;;;;;;4.93;1.10;;;31.80;99.90;;;;;;10471717;28;20580;-79
2022/08/02 10:24:40;;;;;;;5.47;1.60;;;31.70;99.90;;;;;;10470693;28;20200;-80
2022/08/02 10:30:01;;;;;;;2.30;1.38;;;31.80;99.90;;;;;;10472218;28;20253;-79
2022/08/02 10:35:24;;;;;;;28.83;4.57;;;31.70;99.90;;;;;;10470968;28;20200;-79
2022/08/02 10:40:52;;;;;;;10.70;1.90;;;31.50;99.90;;;;;;10456366;28;20231;-79
2022/08/02 10:46:33;;;;;;;25.52;2.10;;;31.60;99.90;;;;;;10471676;28;20230;-79
2022/08/02 10:52:04;;;;;;;3.90;1.08;;;32.00;99.90;;;;;;10464001;28;20443;-79
2022/08/02 10:57:27;;;;;;;6.82;1.40;;;32.10;99.90;;;;;;10470192;28;20422;-79
2022/08/02 11:02:49;;;;;;;19.27;1.92;;;32.00;99.90;;;;;;10470141;28;20207;-79
2022/08/02 11:08:19;;;;;;;6.18;1.55;;;32.30;99.90;;;;;;10470810;28;20211;-79
2022/08/02 11:14:07;;;;;;;8.15;1.73;;;31.90;99.90;;;;;;10454359;28;20239;-80
2022/08/02 11:19:29;;;;;;;10.20;1.40;;;31.50;99.90;;;;;;10472680;28;20227;-79
2022/08/02 11:24:50;;;;;;;5.65;1.40;;;31.30;99.90;;;;;;10478950;28;20196;-80
2022/08/02 11:30:13;;;;;;;3.30;1.10;;;31.30;99.90;;;;;;10478733;28;20195;-79
2022/08/02 11:35:39;;;;;;;5.60;1.48;;;31.30;99.90;;;;;;10477658;28;20195;-78
2022/08/02 11:41:02;;;;;;;3.80;1.17;;;31.30;99.90;;;;;;10462735;28;20255;-83
2022/08/02 11:46:23;;;;;;;6.28;1.00;;;31.40;99.90;;;;;;10494054;28;20238;-80
2022/08/02 11:52:11;;;;;;;7.10;1.75;;;31.70;99.90;;;;;;10478288;28;20206;-86
2022/08/02 11:57:34;;;;;;;2.58;1.40;;;32.00;99.90;;;;;;10462970;28;20203;-82
2022/08/02 12:02:55;;;;;;;8.23;1.63;;;32.00;99.90;;;;;;10476490;28;20192;-81
2022/08/02 12:08:18;;;;;;;14.00;2.08;;;31.50;99.90;;;;;;10475692;28;20287;-79
2022/08/02 12:13:43;;;;;;;4.70;1.40;;;31.40;99.90;;;;;;10474807;28;20235;-80
2022/08/02 12:19:18;;;;;;;4.43;1.30;;;31.20;99.90;;;;;;10475051;28;20235;-79
2022/08/02 12:24:42;;;;;;;5.43;1.55;;;30.80;99.90;;;;;;10475544;28;20206;-83
2022/08/02 12:30:12;;;;;;;5.68;1.20;;;30.90;99.90;;;;;;10462093;28;20192;-81
2022/08/02 12:35:33;;;;;;;6.75;1.30;;;31.20;99.90;;;;;;10420151;28;20223;-80
2022/08/02 12:40:55;;;;;;;8.43;1.35;;;31.10;99.90;;;;;;10447061;28;20230;-79
2022/08/02 12:46:17;;;;;;;4.43;1.02;;;31.10;99.90;;;;;;10444899;28;20188;-79
2022/08/02 12:51:40;;;;;;;6.38;1.80;;;31.10;99.90;;;;;;10466878;28;20206;-78
2022/08/02 12:57:13;;;;;;;3.88;1.38;;;30.90;99.90;;;;;;10467862;28;20275;-81
2022/08/02 13:02:34;;;;;;;6.80;2.22;;;30.80;99.90;;;;;;10472171;28;20275;-79
2022/08/02 13:07:57;;;;;;;1.70;1.02;;;30.80;99.90;;;;;;10475205;28;20200;-83
2022/08/02 13:13:18;;;;;;;4.85;1.77;;;30.40;99.90;;;;;;10452002;28;20570;-80
2022/08/02 13:18:40;;;;;;;3.33;1.27;;;30.00;99.90;;;;;;10407641;28;20229;-80
2022/08/02 13:24:01;;;;;;;2.97;1.42;;;29.80;99.90;;;;;;10377405;28;20222;-81
2022/08/02 13:29:23;;;;;;;2.90;1.48;;;29.90;99.90;;;;;;10391671;28;20201;-81
2022/08/02 13:34:45;;;;;;;3.05;1.00;;;29.90;99.90;;;;;;10393606;28;20193;-79
2022/08/02 13:40:07;;;;;;;4.07;1.38;;;29.90;99.90;;;;;;10390842;28;20228;-81
2022/08/02 13:45:44;;;;;;;3.35;1.50;;;30.20;99.90;;;;;;10429342;28;20522;-79
2022/08/02 13:51:10;;;;;;;6.60;1.20;;;30.30;99.90;;;;;;10432678;28;20199;-80
2022/08/02 13:56:32;;;;;;;9.00;1.33;;;30.30;99.90;;;;;;10448634;28;20509;-82
2022/08/02 14:01:55;;;;;;;2.88;1.52;;;30.20;99.90;;;;;;10486104;28;20290;-80
2022/08/02 14:07:16;;;;;;;3.13;1.10;;;29.90;99.90;;;;;;10436259;28;20219;-84
2022/08/02 14:12:38;;;;;;;3.00;1.20;;;29.80;99.90;;;;;;10431197;28;20479;-84
2022/08/02 14:17:59;;;;;;;2.63;1.30;;;29.60;99.90;;;;;;10430096;28;20254;-81
2022/08/02 14:23:20;;;;;;;3.42;0.80;;;29.40;99.90;;;;;;10430889;28;20421;-82
2022/08/02 14:28:42;;;;;;;7.30;2.75;;;29.40;99.90;;;;;;10431275;28;20203;-82
2022/08/02 14:34:03;;;;;;;4.68;1.42;;;29.10;99.90;;;;;;10430965;28;20254;-79
2022/08/02 14:39:25;;;;;;;3.97;1.13;;;29.00;99.90;;;;;;10430044;28;20247;-79
2022/08/02 14:44:46;;;;;;;3.45;1.15;;;28.90;99.90;;;;;;10415606;28;20476;-79
2022/08/02 14:50:08;;;;;;;4.40;1.40;;;28.90;99.90;;;;;;10431023;28;20287;-79
2022/08/02 14:55:29;;;;;;;2.10;1.10;;;28.80;99.90;;;;;;10432275;28;20212;-82
2022/08/02 15:00:50;;;;;;;2.08;0.95;;;28.70;99.90;;;;;;10436886;28;20220;-79
2022/08/02 15:06:12;;;;;;;2.33;1.27;;;28.50;99.90;;;;;;10442515;28;20495;-84
2022/08/02 15:11:35;;;;;;;12.40;1.60;;;28.00;99.90;;;;;;10443173;28;20195;-84
2022/08/02 15:16:57;;;;;;;3.15;1.13;;;27.90;99.90;;;;;;10438228;28;20263;-82
2022/08/02 15:22:18;;;;;;;3.58;1.10;;;27.90;99.90;;;;;;10440439;28;20588;-81
2022/08/02 15:27:40;;;;;;;4.65;1.10;;;28.00;99.90;;;;;;10440115;28;20196;-84
2022/08/02 15:33:02;;;;;;;1.95;1.00;;;28.00;99.90;;;;;;10440272;28;20196;-78
2022/08/02 15:38:24;;;;;;;2.08;1.20;;;28.10;99.90;;;;;;10441542;28;20303;-82
2022/08/02 15:43:45;;;;;;;4.18;1.70;;;28.00;99.90;;;;;;10442440;28;20191;-79
2022/08/02 15:49:07;;;;;;;2.58;0.90;;;27.80;99.90;;;;;;10441497;28;20385;-80
2022/08/02 15:54:28;;;;;;;2.10;0.85;;;27.70;99.90;;;;;;10424370;28;20193;-79
2022/08/02 15:59:52;;;;;;;2.03;0.90;;;27.50;99.90;;;;;;10498685;28;20403;-84
2022/08/02 16:05:13;;;;;;;2.03;1.02;;;27.50;99.90;;;;;;10480921;28;20198;-81
2022/08/02 16:10:35;;;;;;;2.50;1.00;;;27.50;99.90;;;;;;10498504;28;20200;-80
2022/08/02 16:15:57;;;;;;;3.42;0.90;;;27.40;99.90;;;;;;10442178;28;20250;-79
2022/08/02 16:21:18;;;;;;;3.55;0.80;;;27.30;99.90;;;;;;10440651;28;20220;-81
2022/08/02 16:26:40;;;;;;;3.95;0.98;;;27.20;99.90;;;;;;10441117;28;20188;-83
2022/08/02 16:32:02;;;;;;;3.28;1.23;;;27.10;99.90;;;;;;10440877;28;20231;-79
2022/08/02 16:37:26;;;;;;;2.00;1.00;;;26.90;99.90;;;;;;10441074;28;20189;-81
2022/08/02 16:42:47;;;;;;;2.30;0.88;;;26.90;99.90;;;;;;10439638;28;20228;-82
2022/08/02 16:48:09;;;;;;;2.03;1.00;;;26.90;99.90;;;;;;10440512;28;20251;-80
2022/08/02 16:53:30;;;;;;;4.95;1.80;;;26.80;99.90;;;;;;10427036;28;20280;-80
2022/08/02 16:58:52;;;;;;;3.47;1.40;;;26.70;99.90;;;;;;10470508;28;20235;-81
2022/08/02 17:04:14;;;;;;;6.65;1.92;;;26.40;99.90;;;;;;10487234;28;20272;-83
2022/08/02 17:09:36;;;;;;;8.90;2.33;;;25.80;99.90;;;;;;10439730;28;20204;-83
2022/08/02 17:14:57;;;;;;;4.28;1.92;;;25.40;99.90;;;;;;10438168;28;20235;-78
2022/08/02 17:20:18;;;;;;;8.75;2.28;;;24.90;99.90;;;;;;10438953;28;20220;-80
2022/08/02 17:25:39;;;;;;;8.43;2.28;;;24.70;99.90;;;;;;10438959;28;20189;-83
2022/08/02 17:31:01;;;;;;;5.90;1.73;;;24.40;99.90;;;;;;10438603;28;20193;-79
2022/08/02 17:36:23;;;;;;;4.68;1.73;;;24.30;99.90;;;;;;10383383;28;20189;-83
2022/08/02 17:41:45;;;;;;;10.23;2.40;;;24.00;1.00;;;;;;10396069;28;20263;-82
2022/08/02 17:47:08;;;;;;;7.22;2.00;;;23.90;1.00;;;;;;10397070;28;20232;-81
2022/08/02 17:52:30;;;;;;;8.05;1.98;;;23.30;1.00;;;;;;10405029;28;20272;-79
2022/08/02 17:57:52;;;;;;;3.47;1.60;;;23.20;1.00;;;;;;10478188;28;20187;-79
2022/08/02 18:03:13;;;;;;;8.15;2.38;;;23.00;1.00;;;;;;10478705;28;20487;-79
2022/08/02 18:08:35;;;;;;;10.00;2.65;;;22.80;1.00;;;;;;10463575;28;20196;-82
2022/08/02 18:13:56;;;;;;;11.20;2.63;;;22.70;1.00;;;;;;10493916;28;20557;-80
2022/08/02 18:19:18;;;;;;;9.05;2.20;;;22.50;27.10;;;;;;10493753;28;20238;-80
2022/08/02 18:24:40;;;;;;;10.98;2.55;;;22.20;99.90;;;;;;10453703;28;20208;-79
2022/08/02 18:30:01;;;;;;;7.57;2.45;;;22.20;1.00;;;;;;10434756;28;20196;-79
2022/08/02 18:35:22;;;;;;;7.50;3.20;;;21.90;11.20;;;;;;10435501;28;20386;-82
2022/08/02 18:40:44;;;;;;;6.53;2.75;;;21.70;1.00;;;;;;10435534;28;20446;-83
2022/08/02 18:46:06;;;;;;;6.60;2.63;;;21.50;99.90;;;;;;10436581;28;20195;-83
2022/08/02 18:51:28;;;;;;;7.53;2.25;;;21.40;1.00;;;;;;10434706;28;20461;-84
2022/08/02 18:56:49;;;;;;;5.57;2.05;;;21.30;99.90;;;;;;10436028;28;20208;-81
2022/08/02 19:02:11;;;;;;;6.25;2.08;;;21.20;1.00;;;;;;10436103;28;20223;-81
2022/08/02 19:07:33;;;;;;;8.25;2.60;;;;;;;;;;10420710;28;20196;-83
2022/08/02 19:12:54;;;;;;;7.97;2.78;;;20.80;1.00;;;;;;10450941;28;20240;-78
2022/08/02 19:18:15;;;;;;;11.93;2.85;;;20.70;99.90;;;;;;10436257;28;20192;-79
2022/08/02 19:23:37;;;;;;;7.22;2.33;;;20.40;99.90;;;;;;10435089;28;20390;-79
2022/08/02 19:28:59;;;;;;;9.50;2.13;;;20.30;99.90;;;;;;10451061;28;20223;-78
2022/08/02 19:34:20;;;;;;;5.57;3.13;;;20.30;1.00;;;;;;10434427;28;20200;-79
2022/08/02 19:39:41;;;;;;;7.30;3.17;;;20.20;99.90;;;;;;10451766;28;20424;-78
2022/08/02 19:45:02;;;;;;;9.63;3.67;;;20.10;1.00;;;;;;10442922;28;20216;-79
2022/08/02 19:50:24;;;;;;;9.65;2.63;;;20.00;1.00;;;;;;10419505;28;20511;-79
2022/08/02 19:55:45;;;;;;;8.75;2.60;;;19.90;99.90;;;;;;10433394;28;20211;-78
2022/08/02 20:01:08;;;;;;;8.55;3.03;;;19.80;99.90;;;;;;10498789;28;20234;-78
2022/08/02 20:06:30;;;;;;;6.55;2.15;;;;;;;;;;10483068;28;20195;-78
2022/08/02 20:11:51;;;;;;;5.25;2.45;;;19.60;1.00;;;;;;10439965;28;20188;-79
2022/08/02 20:17:12;;;;;;;13.75;2.67;;;19.40;1.00;;;;;;10441457;28;20215;-79
2022/08/02 20:23:13;;;;;;;5.55;2.40;;;19.30;1.00;;;;;;10441319;28;20220;-79
2022/08/02 20:28:14;;;;;;;5.40;2.60;;;19.30;1.00;;;;;;10439802;28;20197;-79
2022/08/02 20:33:36;;;;;;;7.90;2.92;;;19.30;1.00;;;;;;10440768;28;20192;-78
2022/08/02 20:38:57;;;;;;;6.75;2.80;;;19.30;1.00;;;;;;10439494;28;20204;-79
2022/08/02 20:44:19;;;;;;;7.47;2.75;;;19.20;1.00;;;;;;10440623;28;20531;-78
2022/08/02 20:50:46;;;;;;;8.55;2.97;;;19.20;1.00;;;;;;10440098;28;20192;-78
2022/08/02 20:55:21;;;;;;;7.15;2.90;;;19.10;29.80;;;;;;10428758;28;20272;-78
2022/08/02 21:00:43;;;;;;;8.77;3.50;;;19.00;87.50;;;;;;10480833;28;20219;-78
2022/08/02 21:06:04;;;;;;;6.95;3.10;;;19.00;99.90;;;;;;10480883;28;20188;-78
2022/08/02 21:11:25;;;;;;;4.88;2.47;;;19.00;99.90;;;;;;10425529;28;20200;-77
2022/08/02 21:16:46;;;;;;;6.47;2.30;;;19.00;99.90;;;;;;10438037;28;20203;-78
2022/08/02 21:22:08;;;;;;;6.15;2.67;;;18.90;99.90;;;;;;10438914;28;20292;-77
2022/08/02 21:27:30;;;;;;;5.85;2.30;;;19.00;99.90;;;;;;10438877;28;20196;-78
2022/08/02 21:32:55;;;;;;;4.75;2.38;;;18.90;99.90;;;;;;10437107;28;20402;-78
2022/08/02 21:38:16;;;;;;;6.07;2.42;;;18.90;99.90;;;;;;10436540;28;20388;-78
2022/08/02 21:43:38;;;;;;;4.47;2.10;;;18.80;99.90;;;;;;10453676;28;20212;-79
2022/08/02 21:49:00;;;;;;;3.90;1.42;;;18.80;99.90;;;;;;10438180;28;20246;-80
2022/08/02 21:54:22;;;;;;;3.72;1.80;;;18.70;99.90;;;;;;10433916;28;20196;-78
2022/08/02 21:59:45;;;;;;;4.45;2.08;;;18.70;99.90;;;;;;10437449;28;20212;-84
2022/08/02 22:05:09;;;;;;;5.50;1.73;;;18.60;99.90;;;;;;10452317;28;20393;-83
2022/08/02 22:10:59;;;;;;;6.80;1.65;;;18.60;99.90;;;;;;10437354;28;20475;-80
2022/08/02 22:16:12;;;;;;;9.73;2.38;;;18.50;99.90;;;;;;10436802;28;20498;-83
2022/08/02 22:21:34;;;;;;;6.47;1.92;;;18.50;99.90;;;;;;10421946;28;20432;-80
2022/08/02 22:26:55;;;;;;;4.90;1.85;;;18.40;99.90;;;;;;10435974;28;20192;-80
2022/08/02 22:34:04;;;;;;;4.75;1.80;;;18.40;99.90;;;;;;10436783;28;20215;-80
2022/08/02 22:37:57;;;;;;;6.97;2.60;;;18.30;99.90;;;;;;10451771;28;20199;-78
2022/08/02 22:43:19;;;;;;;7.25;2.03;;;18.30;99.90;;;;;;10436281;28;20246;-79
2022/08/02 22:48:40;;;;;;;5.05;2.25;;;18.30;99.90;;;;;;10421544;28;20188;-80
2022/08/02 22:54:02;;;;;;;5.72;1.95;;;18.30;99.90;;;;;;10431206;28;20196;-78
2022/08/02 22:59:23;;;;;;;3.60;1.75;;;18.30;99.90;;;;;;10475351;28;20208;-78
2022/08/02 23:04:44;;;;;;;6.03;1.85;;;18.20;99.90;;;;;;10477484;28;20191;-83
2022/08/02 23:10:06;;;;;;;5.35;2.22;;;18.20;99.90;;;;;;10443176;28;20234;-83
2022/08/02 23:19:49;;;;;;;5.10;1.95;;;18.20;99.90;;;;;;10438932;28;20232;-83
2022/08/02 23:21:09;;;;;;;5.82;2.03;;;18.20;99.90;;;;;;10443997;28;20220;-83
2022/08/02 23:26:31;;;;;;;10.32;2.80;;;18.20;99.90;;;;;;10442717;28;20192;-83
2022/08/02 23:31:52;;;;;;;4.55;1.90;;;18.20;99.90;;;;;;10442538;28;20200;-83
2022/08/02 23:37:13;;;;;;;7.35;2.00;;;18.20;99.90;;;;;;10414194;28;20537;-82
2022/08/02 23:42:35;;;;;;;7.78;2.60;;;18.20;99.90;;;;;;10441828;28;20299;-84
2022/08/02 23:47:56;;;;;;;6.68;2.30;;;18.20;99.90;;;;;;10442296;28;20265;-81
2022/08/02 23:53:17;;;;;;;5.72;2.55;;;18.20;99.90;;;;;;10434902;28;20197;-82
2022/08/02 23:58:39;;;;;;;8.30;2.33;;;18.20;99.90;;;;;;10468950;28;20215;-83
